Hovedside
METAR-TAF:

METAR-TAF

Lufthavner :

Tambacounda, Senegal

breddegrad: 13-46N, lengdegrad: 013-41W, høyde over havet: 49 m

Gjeldene værobservasjon

Denne rapporten ble laget for 1 time og 15 minutter siden, klokken 13:00 UTC
Vind 10 kt fra Øst-sørøst
Temperatur 24°C
Luftfuktighet 94%
Trykk 1014 hPa
Sikt 10 km eller mer
Få skyer i en høyde av 1300 ft
lett regn,

METAR: GOTT 181300Z 12010KT 9999 -RA FEW013 24/23 Q1014

Tid: 14:15 (14:15 UTC)


TAF: fraværende

Værobservasjoner og værvarsel for over 4000 flyplasser (METAR- og TAF-rapporter).

Tilgjengelige stasjoner er representert av de røde og gule prikkene på kartet.

Hold musepekeren over prikken for å se navnet på stasjonen.

Klikk så for å se værobservasjoner og -varsler.

For å forandre kartet kan du klikke på den grønne knappen med svart kryss for å zoome inn, på den grønne knappen med strek for å zoome ut, eller på de grønne pilene for å se tilstøtende kart.


METAR-TAF: